sensor_id;sensor_type;location;lat;lon;timestamp;temperature;humidity
1468;DHT22;727;48.892;9.544;2023-02-28T00:01:53;-0.80;85.20
1468;DHT22;727;48.892;9.544;2023-02-28T00:04:20;-0.80;85.70
1468;DHT22;727;48.892;9.544;2023-02-28T00:06:47;-0.90;86.00
1468;DHT22;727;48.892;9.544;2023-02-28T00:09:13;-0.90;87.00
1468;DHT22;727;48.892;9.544;2023-02-28T00:11:40;-0.80;86.80
1468;DHT22;727;48.892;9.544;2023-02-28T00:14:08;-0.70;86.50
1468;DHT22;727;48.892;9.544;2023-02-28T00:16:35;-0.80;86.70
1468;DHT22;727;48.892;9.544;2023-02-28T00:19:02;-0.80;87.20
1468;DHT22;727;48.892;9.544;2023-02-28T00:21:29;-0.80;87.30
1468;DHT22;727;48.892;9.544;2023-02-28T00:23:55;-0.90;87.50
1468;DHT22;727;48.892;9.544;2023-02-28T00:26:22;-0.70;87.60
1468;DHT22;727;48.892;9.544;2023-02-28T00:28:51;-0.80;87.70
1468;DHT22;727;48.892;9.544;2023-02-28T00:31:19;-0.70;88.00
1468;DHT22;727;48.892;9.544;2023-02-28T00:33:46;-0.80;88.30
1468;DHT22;727;48.892;9.544;2023-02-28T00:36:13;-0.80;89.10
1468;DHT22;727;48.892;9.544;2023-02-28T00:38:40;-0.90;89.80
1468;DHT22;727;48.892;9.544;2023-02-28T00:41:08;-0.90;90.10
1468;DHT22;727;48.892;9.544;2023-02-28T00:43:37;-1.00;90.20
1468;DHT22;727;48.892;9.544;2023-02-28T00:46:04;-0.90;90.40
1468;DHT22;727;48.892;9.544;2023-02-28T00:48:33;-0.80;90.70
1468;DHT22;727;48.892;9.544;2023-02-28T00:51:00;-0.80;90.50
1468;DHT22;727;48.892;9.544;2023-02-28T00:53:27;-0.90;90.60
1468;DHT22;727;48.892;9.544;2023-02-28T00:55:54;-0.80;90.60
1468;DHT22;727;48.892;9.544;2023-02-28T00:58:21;-0.80;91.30
1468;DHT22;727;48.892;9.544;2023-02-28T01:00:48;-0.80;91.00
1468;DHT22;727;48.892;9.544;2023-02-28T01:03:15;-0.90;91.00
1468;DHT22;727;48.892;9.544;2023-02-28T01:05:45;-0.80;91.20
1468;DHT22;727;48.892;9.544;2023-02-28T01:08:12;-0.90;91.30
1468;DHT22;727;48.892;9.544;2023-02-28T01:10:39;-0.90;91.50
1468;DHT22;727;48.892;9.544;2023-02-28T01:13:06;-0.90;91.80
1468;DHT22;727;48.892;9.544;2023-02-28T01:15:33;-1.00;92.00
1468;DHT22;727;48.892;9.544;2023-02-28T01:18:00;-0.90;92.10
1468;DHT22;727;48.892;9.544;2023-02-28T01:20:26;-0.90;92.30
1468;DHT22;727;48.892;9.544;2023-02-28T01:22:55;-0.90;92.40
1468;DHT22;727;48.892;9.544;2023-02-28T01:25:21;-0.90;92.50
1468;DHT22;727;48.892;9.544;2023-02-28T01:27:48;-0.90;92.60
1468;DHT22;727;48.892;9.544;2023-02-28T01:30:15;-1.00;92.90
1468;DHT22;727;48.892;9.544;2023-02-28T01:32:42;-0.90;93.00
1468;DHT22;727;48.892;9.544;2023-02-28T01:35:09;-1.00;93.10
1468;DHT22;727;48.892;9.544;2023-02-28T01:37:36;-1.00;93.20
1468;DHT22;727;48.892;9.544;2023-02-28T01:40:05;-1.00;93.20
1468;DHT22;727;48.892;9.544;2023-02-28T01:42:32;-1.00;93.40
1468;DHT22;727;48.892;9.544;2023-02-28T01:45:18;-1.00;93.60
1468;DHT22;727;48.892;9.544;2023-02-28T01:47:46;-1.00;93.90
1468;DHT22;727;48.892;9.544;2023-02-28T01:50:16;-1.00;93.80
1468;DHT22;727;48.892;9.544;2023-02-28T01:52:44;-1.00;93.80
1468;DHT22;727;48.892;9.544;2023-02-28T01:55:15;-1.10;94.00
1468;DHT22;727;48.892;9.544;2023-02-28T01:57:47;-1.10;94.20
1468;DHT22;727;48.892;9.544;2023-02-28T02:00:17;-1.20;94.40
1468;DHT22;727;48.892;9.544;2023-02-28T02:02:51;-1.10;94.90
1468;DHT22;727;48.892;9.544;2023-02-28T02:05:21;-1.00;94.80
1468;DHT22;727;48.892;9.544;2023-02-28T02:07:51;-1.00;94.80
1468;DHT22;727;48.892;9.544;2023-02-28T02:10:23;-1.00;95.00
1468;DHT22;727;48.892;9.544;2023-02-28T02:13:06;-1.00;95.00
1468;DHT22;727;48.892;9.544;2023-02-28T02:15:40;-1.00;95.20
1468;DHT22;727;48.892;9.544;2023-02-28T02:18:17;-1.10;95.30
1468;DHT22;727;48.892;9.544;2023-02-28T02:21:18;-1.10;95.40
1468;DHT22;727;48.892;9.544;2023-02-28T02:24:09;-1.10;95.60
1468;DHT22;727;48.892;9.544;2023-02-28T02:26:50;-1.20;95.90
1468;DHT22;727;48.892;9.544;2023-02-28T02:29:47;-1.10;96.20
1468;DHT22;727;48.892;9.544;2023-02-28T02:32:45;-1.00;96.50
1468;DHT22;727;48.892;9.544;2023-02-28T02:35:20;-1.00;96.50
1468;DHT22;727;48.892;9.544;2023-02-28T02:37:57;-1.10;96.70
1468;DHT22;727;48.892;9.544;2023-02-28T02:40:32;-1.10;96.70
1468;DHT22;727;48.892;9.544;2023-02-28T02:43:02;-1.00;97.00
1468;DHT22;727;48.892;9.544;2023-02-28T02:45:33;-0.90;97.00
1468;DHT22;727;48.892;9.544;2023-02-28T02:48:04;-1.00;96.90
1468;DHT22;727;48.892;9.544;2023-02-28T02:50:37;-1.00;97.10
1468;DHT22;727;48.892;9.544;2023-02-28T02:53:07;-1.00;97.30
1468;DHT22;727;48.892;9.544;2023-02-28T02:55:39;-0.90;97.30
1468;DHT22;727;48.892;9.544;2023-02-28T02:58:09;-1.00;97.30
1468;DHT22;727;48.892;9.544;2023-02-28T03:00:39;-0.90;97.40
1468;DHT22;727;48.892;9.544;2023-02-28T03:03:09;-0.90;97.50
1468;DHT22;727;48.892;9.544;2023-02-28T03:05:44;-1.00;97.60
1468;DHT22;727;48.892;9.544;2023-02-28T03:08:12;-1.10;97.80
1468;DHT22;727;48.892;9.544;2023-02-28T03:10:41;-1.10;98.00
1468;DHT22;727;48.892;9.544;2023-02-28T03:13:19;-1.10;98.20
1468;DHT22;727;48.892;9.544;2023-02-28T03:15:58;-1.20;98.40
1468;DHT22;727;48.892;9.544;2023-02-28T03:18:32;-1.10;98.60
1468;DHT22;727;48.892;9.544;2023-02-28T03:21:06;-1.10;98.60
1468;DHT22;727;48.892;9.544;2023-02-28T03:23:44;-1.10;98.60
1468;DHT22;727;48.892;9.544;2023-02-28T03:26:16;-1.20;98.70
1468;DHT22;727;48.892;9.544;2023-02-28T03:28:52;-1.10;98.90
1468;DHT22;727;48.892;9.544;2023-02-28T03:31:24;-1.10;99.00
1468;DHT22;727;48.892;9.544;2023-02-28T03:33:58;-1.10;99.10
1468;DHT22;727;48.892;9.544;2023-02-28T03:36:29;-1.10;99.20
1468;DHT22;727;48.892;9.544;2023-02-28T03:38:59;-1.20;99.20
1468;DHT22;727;48.892;9.544;2023-02-28T03:41:32;-1.20;99.30
1468;DHT22;727;48.892;9.544;2023-02-28T03:44:03;-1.20;99.30
1468;DHT22;727;48.892;9.544;2023-02-28T03:46:33;-1.10;99.50
1468;DHT22;727;48.892;9.544;2023-02-28T03:49:03;-1.10;99.40
1468;DHT22;727;48.892;9.544;2023-02-28T03:51:35;-1.10;99.40
1468;DHT22;727;48.892;9.544;2023-02-28T03:54:07;-1.10;99.40
1468;DHT22;727;48.892;9.544;2023-02-28T03:56:39;-1.00;99.50
1468;DHT22;727;48.892;9.544;2023-02-28T03:59:12;-1.00;99.50
1468;DHT22;727;48.892;9.544;2023-02-28T04:01:42;-1.00;99.40
1468;DHT22;727;48.892;9.544;2023-02-28T04:04:10;-0.90;99.80
1468;DHT22;727;48.892;9.544;2023-02-28T04:06:40;-0.90;99.30
1468;DHT22;727;48.892;9.544;2023-02-28T04:09:08;-0.90;99.20
1468;DHT22;727;48.892;9.544;2023-02-28T04:11:37;-0.90;99.40
1468;DHT22;727;48.892;9.544;2023-02-28T04:14:06;-0.90;99.40
1468;DHT22;727;48.892;9.544;2023-02-28T04:16:34;-0.80;99.60
1468;DHT22;727;48.892;9.544;2023-02-28T04:19:02;-0.70;99.50
1468;DHT22;727;48.892;9.544;2023-02-28T04:21:30;-0.70;99.40
1468;DHT22;727;48.892;9.544;2023-02-28T04:23:59;-0.80;99.40
1468;DHT22;727;48.892;9.544;2023-02-28T04:26:27;-0.80;99.50
1468;DHT22;727;48.892;9.544;2023-02-28T04:28:55;-0.80;99.50
1468;DHT22;727;48.892;9.544;2023-02-28T04:31:22;-0.70;99.50
1468;DHT22;727;48.892;9.544;2023-02-28T04:33:48;-0.70;99.50
1468;DHT22;727;48.892;9.544;2023-02-28T04:36:15;-0.60;99.60
1468;DHT22;727;48.892;9.544;2023-02-28T04:38:44;-0.60;99.60
1468;DHT22;727;48.892;9.544;2023-02-28T04:41:15;-0.60;99.90
1468;DHT22;727;48.892;9.544;2023-02-28T04:43:42;-0.50;99.90
1468;DHT22;727;48.892;9.544;2023-02-28T04:46:09;-0.50;99.90
1468;DHT22;727;48.892;9.544;2023-02-28T04:48:38;-0.50;99.90
1468;DHT22;727;48.892;9.544;2023-02-28T04:51:09;-0.50;99.90
1468;DHT22;727;48.892;9.544;2023-02-28T04:53:38;-0.50;99.90
1468;DHT22;727;48.892;9.544;2023-02-28T04:56:08;-0.30;99.90
1468;DHT22;727;48.892;9.544;2023-02-28T04:58:38;-0.40;99.80
1468;DHT22;727;48.892;9.544;2023-02-28T05:01:06;-0.40;99.90
1468;DHT22;727;48.892;9.544;2023-02-28T05:03:38;-0.40;99.90
1468;DHT22;727;48.892;9.544;2023-02-28T05:06:06;-0.40;99.90
1468;DHT22;727;48.892;9.544;2023-02-28T05:08:33;-0.30;99.80
1468;DHT22;727;48.892;9.544;2023-02-28T05:11:00;-0.40;99.60
1468;DHT22;727;48.892;9.544;2023-02-28T05:13:27;-0.30;99.70
1468;DHT22;727;48.892;9.544;2023-02-28T05:15:55;-0.40;99.60
1468;DHT22;727;48.892;9.544;2023-02-28T05:18:22;-0.40;99.50
1468;DHT22;727;48.892;9.544;2023-02-28T05:20:49;-0.20;99.50
1468;DHT22;727;48.892;9.544;2023-02-28T05:23:17;-0.30;99.00
1468;DHT22;727;48.892;9.544;2023-02-28T05:25:46;-0.30;98.90
1468;DHT22;727;48.892;9.544;2023-02-28T05:28:13;-0.20;98.70
1468;DHT22;727;48.892;9.544;2023-02-28T05:30:39;-0.20;98.50
1468;DHT22;727;48.892;9.544;2023-02-28T05:33:12;-0.20;98.40
1468;DHT22;727;48.892;9.544;2023-02-28T05:35:39;-0.20;98.50
1468;DHT22;727;48.892;9.544;2023-02-28T05:38:06;-0.20;98.50
1468;DHT22;727;48.892;9.544;2023-02-28T05:40:34;-0.30;98.60
1468;DHT22;727;48.892;9.544;2023-02-28T05:43:01;-0.20;98.70
1468;DHT22;727;48.892;9.544;2023-02-28T05:45:27;-0.20;98.50
1468;DHT22;727;48.892;9.544;2023-02-28T05:47:55;-0.20;98.50
1468;DHT22;727;48.892;9.544;2023-02-28T05:50:23;-0.20;98.30
1468;DHT22;727;48.892;9.544;2023-02-28T05:52:50;-0.10;98.10
1468;DHT22;727;48.892;9.544;2023-02-28T05:55:17;-0.20;97.90
1468;DHT22;727;48.892;9.544;2023-02-28T05:57:44;-0.20;97.90
1468;DHT22;727;48.892;9.544;2023-02-28T06:00:13;-0.10;98.00
1468;DHT22;727;48.892;9.544;2023-02-28T06:02:40;-0.10;98.00
1468;DHT22;727;48.892;9.544;2023-02-28T06:05:13;-0.10;98.00
1468;DHT22;727;48.892;9.544;2023-02-28T06:07:42;0.00;97.90
1468;DHT22;727;48.892;9.544;2023-02-28T06:10:12;0.00;97.70
1468;DHT22;727;48.892;9.544;2023-02-28T06:12:39;-0.10;97.50
1468;DHT22;727;48.892;9.544;2023-02-28T06:15:11;-0.10;97.50
1468;DHT22;727;48.892;9.544;2023-02-28T06:17:38;0.00;97.60
1468;DHT22;727;48.892;9.544;2023-02-28T06:20:07;-0.10;97.70
1468;DHT22;727;48.892;9.544;2023-02-28T06:22:35;0.00;97.90
1468;DHT22;727;48.892;9.544;2023-02-28T06:25:03;0.00;98.20
1468;DHT22;727;48.892;9.544;2023-02-28T06:27:31;0.10;97.40
1468;DHT22;727;48.892;9.544;2023-02-28T06:29:58;0.10;96.90
1468;DHT22;727;48.892;9.544;2023-02-28T06:32:25;0.10;96.90
1468;DHT22;727;48.892;9.544;2023-02-28T06:34:52;0.10;96.90
1468;DHT22;727;48.892;9.544;2023-02-28T06:37:19;0.10;97.20
1468;DHT22;727;48.892;9.544;2023-02-28T06:39:46;0.10;97.20
1468;DHT22;727;48.892;9.544;2023-02-28T06:42:14;0.10;97.10
1468;DHT22;727;48.892;9.544;2023-02-28T06:44:40;0.10;97.10
1468;DHT22;727;48.892;9.544;2023-02-28T06:47:08;0.10;97.00
1468;DHT22;727;48.892;9.544;2023-02-28T06:49:35;0.10;96.80
1468;DHT22;727;48.892;9.544;2023-02-28T06:52:03;0.20;96.80
1468;DHT22;727;48.892;9.544;2023-02-28T06:54:29;0.20;96.80
1468;DHT22;727;48.892;9.544;2023-02-28T06:56:57;0.20;96.60
1468;DHT22;727;48.892;9.544;2023-02-28T06:59:26;0.20;96.40
1468;DHT22;727;48.892;9.544;2023-02-28T07:01:52;0.20;96.50
1468;DHT22;727;48.892;9.544;2023-02-28T07:04:20;0.20;96.70
1468;DHT22;727;48.892;9.544;2023-02-28T07:06:47;0.20;96.60
1468;DHT22;727;48.892;9.544;2023-02-28T07:09:14;0.20;96.40
1468;DHT22;727;48.892;9.544;2023-02-28T07:11:40;0.20;96.40
1468;DHT22;727;48.892;9.544;2023-02-28T07:14:08;0.20;96.80
1468;DHT22;727;48.892;9.544;2023-02-28T07:16:37;0.30;96.30
1468;DHT22;727;48.892;9.544;2023-02-28T07:19:03;0.30;96.10
1468;DHT22;727;48.892;9.544;2023-02-28T07:21:30;0.40;96.00
1468;DHT22;727;48.892;9.544;2023-02-28T07:23:57;0.50;96.00
1468;DHT22;727;48.892;9.544;2023-02-28T07:26:24;0.60;96.00
1468;DHT22;727;48.892;9.544;2023-02-28T07:28:51;0.70;96.00
1468;DHT22;727;48.892;9.544;2023-02-28T07:31:18;0.70;95.70
1468;DHT22;727;48.892;9.544;2023-02-28T07:33:47;0.70;95.50
1468;DHT22;727;48.892;9.544;2023-02-28T07:36:15;0.80;95.30
1468;DHT22;727;48.892;9.544;2023-02-28T07:38:45;0.70;94.90
1468;DHT22;727;48.892;9.544;2023-02-28T07:41:13;0.60;95.00
1468;DHT22;727;48.892;9.544;2023-02-28T07:43:40;0.70;95.30
1468;DHT22;727;48.892;9.544;2023-02-28T07:46:09;0.70;95.30
1468;DHT22;727;48.892;9.544;2023-02-28T07:48:37;0.80;95.30
1468;DHT22;727;48.892;9.544;2023-02-28T07:51:05;0.90;95.10
1468;DHT22;727;48.892;9.544;2023-02-28T07:53:33;1.00;94.90
1468;DHT22;727;48.892;9.544;2023-02-28T07:56:01;1.00;94.80
1468;DHT22;727;48.892;9.544;2023-02-28T07:58:29;0.90;94.70
1468;DHT22;727;48.892;9.544;2023-02-28T08:00:57;1.00;94.80
1468;DHT22;727;48.892;9.544;2023-02-28T08:03:30;1.00;94.60
1468;DHT22;727;48.892;9.544;2023-02-28T08:05:57;1.00;94.80
1468;DHT22;727;48.892;9.544;2023-02-28T08:08:25;1.00;94.50
1468;DHT22;727;48.892;9.544;2023-02-28T08:10:54;1.00;94.40
1468;DHT22;727;48.892;9.544;2023-02-28T08:13:21;1.20;94.30
1468;DHT22;727;48.892;9.544;2023-02-28T08:15:48;1.30;94.20
1468;DHT22;727;48.892;9.544;2023-02-28T08:18:14;1.60;94.10
1468;DHT22;727;48.892;9.544;2023-02-28T08:20:41;1.90;93.60
1468;DHT22;727;48.892;9.544;2023-02-28T08:23:08;2.50;93.50
1468;DHT22;727;48.892;9.544;2023-02-28T08:25:36;3.30;92.20
1468;DHT22;727;48.892;9.544;2023-02-28T08:28:03;3.90;90.50
1468;DHT22;727;48.892;9.544;2023-02-28T08:30:30;4.50;88.60
1468;DHT22;727;48.892;9.544;2023-02-28T08:32:57;5.50;84.90
1468;DHT22;727;48.892;9.544;2023-02-28T08:35:27;5.90;81.10
1468;DHT22;727;48.892;9.544;2023-02-28T08:37:53;5.90;78.70
1468;DHT22;727;48.892;9.544;2023-02-28T08:40:20;5.40;78.90
1468;DHT22;727;48.892;9.544;2023-02-28T08:42:51;6.10;78.90
1468;DHT22;727;48.892;9.544;2023-02-28T08:45:18;5.90;76.60
1468;DHT22;727;48.892;9.544;2023-02-28T08:47:46;6.20;77.10
1468;DHT22;727;48.892;9.544;2023-02-28T08:50:13;7.00;74.60
1468;DHT22;727;48.892;9.544;2023-02-28T08:52:42;7.50;72.40
1468;DHT22;727;48.892;9.544;2023-02-28T08:55:13;7.40;70.80
1468;DHT22;727;48.892;9.544;2023-02-28T08:57:39;7.20;69.70
1468;DHT22;727;48.892;9.544;2023-02-28T09:00:09;6.80;70.40
1468;DHT22;727;48.892;9.544;2023-02-28T09:02:39;5.90;71.10
1468;DHT22;727;48.892;9.544;2023-02-28T09:05:08;5.50;73.40
1468;DHT22;727;48.892;9.544;2023-02-28T09:07:35;5.40;74.50
1468;DHT22;727;48.892;9.544;2023-02-28T09:10:02;5.70;75.20
1468;DHT22;727;48.892;9.544;2023-02-28T09:12:33;5.80;73.40
1468;DHT22;727;48.892;9.544;2023-02-28T09:15:01;6.00;72.80
1468;DHT22;727;48.892;9.544;2023-02-28T09:17:29;5.90;72.00
1468;DHT22;727;48.892;9.544;2023-02-28T09:19:58;5.70;71.50
1468;DHT22;727;48.892;9.544;2023-02-28T09:22:25;5.20;72.50
1468;DHT22;727;48.892;9.544;2023-02-28T09:24:52;4.70;74.10
1468;DHT22;727;48.892;9.544;2023-02-28T09:27:19;4.60;75.80
1468;DHT22;727;48.892;9.544;2023-02-28T09:29:45;4.80;76.40
1468;DHT22;727;48.892;9.544;2023-02-28T09:32:12;4.50;75.70
1468;DHT22;727;48.892;9.544;2023-02-28T09:34:40;4.80;76.20
1468;DHT22;727;48.892;9.544;2023-02-28T09:37:07;5.60;74.30
1468;DHT22;727;48.892;9.544;2023-02-28T09:39:34;5.30;73.50
1468;DHT22;727;48.892;9.544;2023-02-28T09:42:04;5.10;74.30
1468;DHT22;727;48.892;9.544;2023-02-28T09:44:36;5.20;74.70
1468;DHT22;727;48.892;9.544;2023-02-28T09:47:11;5.20;73.10
1468;DHT22;727;48.892;9.544;2023-02-28T09:49:43;5.20;72.80
1468;DHT22;727;48.892;9.544;2023-02-28T09:52:15;5.40;72.80
1468;DHT22;727;48.892;9.544;2023-02-28T09:54:43;6.30;72.90
1468;DHT22;727;48.892;9.544;2023-02-28T09:57:17;7.20;70.30
1468;DHT22;727;48.892;9.544;2023-02-28T09:59:54;7.10;67.30
1468;DHT22;727;48.892;9.544;2023-02-28T10:02:41;6.80;68.30
1468;DHT22;727;48.892;9.544;2023-02-28T10:05:15;7.90;66.90
1468;DHT22;727;48.892;9.544;2023-02-28T10:07:53;7.50;65.40
1468;DHT22;727;48.892;9.544;2023-02-28T10:10:27;6.90;66.50
1468;DHT22;727;48.892;9.544;2023-02-28T10:12:58;6.30;67.40
1468;DHT22;727;48.892;9.544;2023-02-28T10:15:29;5.80;69.30
1468;DHT22;727;48.892;9.544;2023-02-28T10:18:00;6.20;70.10
1468;DHT22;727;48.892;9.544;2023-02-28T10:20:32;6.80;69.60
1468;DHT22;727;48.892;9.544;2023-02-28T10:23:05;8.70;65.80
1468;DHT22;727;48.892;9.544;2023-02-28T10:25:37;9.30;60.90
1468;DHT22;727;48.892;9.544;2023-02-28T10:28:12;8.30;60.80
1468;DHT22;727;48.892;9.544;2023-02-28T10:30:42;7.40;63.50
1468;DHT22;727;48.892;9.544;2023-02-28T10:33:18;7.20;64.50
1468;DHT22;727;48.892;9.544;2023-02-28T10:35:47;6.90;65.00
1468;DHT22;727;48.892;9.544;2023-02-28T10:38:18;6.70;65.70
1468;DHT22;727;48.892;9.544;2023-02-28T10:40:51;6.30;66.30
1468;DHT22;727;48.892;9.544;2023-02-28T10:43:29;5.90;67.70
1468;DHT22;727;48.892;9.544;2023-02-28T10:46:19;5.70;68.90
1468;DHT22;727;48.892;9.544;2023-02-28T10:49:03;6.00;69.90
1468;DHT22;727;48.892;9.544;2023-02-28T10:51:37;7.20;68.00
1468;DHT22;727;48.892;9.544;2023-02-28T10:54:05;9.30;64.50
1468;DHT22;727;48.892;9.544;2023-02-28T10:56:32;11.20;58.30
1468;DHT22;727;48.892;9.544;2023-02-28T10:59:01;11.80;55.00
1468;DHT22;727;48.892;9.544;2023-02-28T11:01:36;12.50;53.50
1468;DHT22;727;48.892;9.544;2023-02-28T11:04:18;12.60;51.90
1468;DHT22;727;48.892;9.544;2023-02-28T11:06:51;12.70;51.60
1468;DHT22;727;48.892;9.544;2023-02-28T11:09:25;13.10;51.70
1468;DHT22;727;48.892;9.544;2023-02-28T11:11:54;14.20;50.50
1468;DHT22;727;48.892;9.544;2023-02-28T11:14:24;14.70;48.40
1468;DHT22;727;48.892;9.544;2023-02-28T11:16:52;14.60;47.30
1468;DHT22;727;48.892;9.544;2023-02-28T11:19:23;13.70;47.20
1468;DHT22;727;48.892;9.544;2023-02-28T11:21:56;12.50;48.80
1468;DHT22;727;48.892;9.544;2023-02-28T11:24:27;13.20;48.60
1468;DHT22;727;48.892;9.544;2023-02-28T11:26:55;13.00;48.20
1468;DHT22;727;48.892;9.544;2023-02-28T11:29:24;12.60;48.70
1468;DHT22;727;48.892;9.544;2023-02-28T11:32:11;12.40;48.80
1468;DHT22;727;48.892;9.544;2023-02-28T11:34:40;12.50;48.50
1468;DHT22;727;48.892;9.544;2023-02-28T11:37:14;11.70;49.20
1468;DHT22;727;48.892;9.544;2023-02-28T11:39:42;10.90;50.50
1468;DHT22;727;48.892;9.544;2023-02-28T11:42:37;10.40;51.70
1468;DHT22;727;48.892;9.544;2023-02-28T11:45:25;10.60;52.20
1468;DHT22;727;48.892;9.544;2023-02-28T11:48:01;10.90;51.80
1468;DHT22;727;48.892;9.544;2023-02-28T11:50:47;11.40;51.40
1468;DHT22;727;48.892;9.544;2023-02-28T11:53:30;11.20;50.50
1468;DHT22;727;48.892;9.544;2023-02-28T11:56:07;11.30;50.70
1468;DHT22;727;48.892;9.544;2023-02-28T11:58:44;11.60;50.90
1468;DHT22;727;48.892;9.544;2023-02-28T12:01:26;11.90;50.50
1468;DHT22;727;48.892;9.544;2023-02-28T12:04:04;12.20;49.50
1468;DHT22;727;48.892;9.544;2023-02-28T12:06:43;12.80;48.30
1468;DHT22;727;48.892;9.544;2023-02-28T12:09:27;11.90;49.00
1468;DHT22;727;48.892;9.544;2023-02-28T12:11:56;12.10;49.70
1468;DHT22;727;48.892;9.544;2023-02-28T12:17:31;12.30;48.80
1468;DHT22;727;48.892;9.544;2023-02-28T12:20:05;11.90;49.20
1468;DHT22;727;48.892;9.544;2023-02-28T12:22:39;12.00;48.80
1468;DHT22;727;48.892;9.544;2023-02-28T12:25:26;11.80;49.30
1468;DHT22;727;48.892;9.544;2023-02-28T12:27:59;11.60;49.30
1468;DHT22;727;48.892;9.544;2023-02-28T12:30:30;12.40;49.40
1468;DHT22;727;48.892;9.544;2023-02-28T12:33:03;12.80;48.60
1468;DHT22;727;48.892;9.544;2023-02-28T12:35:33;12.80;48.20
1468;DHT22;727;48.892;9.544;2023-02-28T12:38:04;12.50;48.40
1468;DHT22;727;48.892;9.544;2023-02-28T12:40:48;12.50;48.30
1468;DHT22;727;48.892;9.544;2023-02-28T12:43:18;12.70;48.90
1468;DHT22;727;48.892;9.544;2023-02-28T12:45:50;13.30;47.50
1468;DHT22;727;48.892;9.544;2023-02-28T12:48:24;13.30;47.20
1468;DHT22;727;48.892;9.544;2023-02-28T12:50:52;12.80;47.20
1468;DHT22;727;48.892;9.544;2023-02-28T12:53:27;12.60;47.30
1468;DHT22;727;48.892;9.544;2023-02-28T12:56:03;12.70;47.50
1468;DHT22;727;48.892;9.544;2023-02-28T12:58:38;12.40;47.90
1468;DHT22;727;48.892;9.544;2023-02-28T13:01:21;12.60;47.80
1468;DHT22;727;48.892;9.544;2023-02-28T13:04:31;12.50;47.70
1468;DHT22;727;48.892;9.544;2023-02-28T13:07:15;12.40;48.10
1468;DHT22;727;48.892;9.544;2023-02-28T13:09:52;11.80;47.60
1468;DHT22;727;48.892;9.544;2023-02-28T13:12:21;11.60;49.00
1468;DHT22;727;48.892;9.544;2023-02-28T13:14:53;11.20;50.00
1468;DHT22;727;48.892;9.544;2023-02-28T13:17:27;10.70;50.40
1468;DHT22;727;48.892;9.544;2023-02-28T13:19:59;9.70;52.60
1468;DHT22;727;48.892;9.544;2023-02-28T13:22:41;9.50;53.40
1468;DHT22;727;48.892;9.544;2023-02-28T13:34:49;10.40;52.00
1468;DHT22;727;48.892;9.544;2023-02-28T13:37:48;10.20;52.10
1468;DHT22;727;48.892;9.544;2023-02-28T13:40:29;9.70;53.50
1468;DHT22;727;48.892;9.544;2023-02-28T13:43:02;9.60;53.90
1468;DHT22;727;48.892;9.544;2023-02-28T13:45:29;9.70;53.90
1468;DHT22;727;48.892;9.544;2023-02-28T13:48:04;9.90;53.90
1468;DHT22;727;48.892;9.544;2023-02-28T13:50:53;10.40;52.70
1468;DHT22;727;48.892;9.544;2023-02-28T13:53:37;10.40;52.70
1468;DHT22;727;48.892;9.544;2023-02-28T13:56:22;10.60;52.00
1468;DHT22;727;48.892;9.544;2023-02-28T13:58:54;10.40;51.70
1468;DHT22;727;48.892;9.544;2023-02-28T14:04:43;9.60;53.80
1468;DHT22;727;48.892;9.544;2023-02-28T14:07:20;9.10;54.70
1468;DHT22;727;48.892;9.544;2023-02-28T14:09:55;8.80;55.30
1468;DHT22;727;48.892;9.544;2023-02-28T14:12:56;8.50;56.10
1468;DHT22;727;48.892;9.544;2023-02-28T14:15:42;8.20;56.90
1468;DHT22;727;48.892;9.544;2023-02-28T14:18:29;8.10;57.30
1468;DHT22;727;48.892;9.544;2023-02-28T14:21:11;8.10;57.40
1468;DHT22;727;48.892;9.544;2023-02-28T14:27:00;7.90;58.20
1468;DHT22;727;48.892;9.544;2023-02-28T14:32:26;8.00;58.40
1468;DHT22;727;48.892;9.544;2023-02-28T14:34:57;8.00;58.30
1468;DHT22;727;48.892;9.544;2023-02-28T14:37:29;7.90;58.50
1468;DHT22;727;48.892;9.544;2023-02-28T14:39:57;7.70;59.40
1468;DHT22;727;48.892;9.544;2023-02-28T14:42:39;7.50;59.20
1468;DHT22;727;48.892;9.544;2023-02-28T14:45:18;7.40;59.40
1468;DHT22;727;48.892;9.544;2023-02-28T14:47:46;7.40;59.60
1468;DHT22;727;48.892;9.544;2023-02-28T14:50:19;7.50;59.50
1468;DHT22;727;48.892;9.544;2023-02-28T14:52:48;7.60;60.00
1468;DHT22;727;48.892;9.544;2023-02-28T14:55:18;7.50;59.90
1468;DHT22;727;48.892;9.544;2023-02-28T14:57:53;7.50;60.00
1468;DHT22;727;48.892;9.544;2023-02-28T15:00:24;7.30;60.10
1468;DHT22;727;48.892;9.544;2023-02-28T15:02:52;7.20;60.60
1468;DHT22;727;48.892;9.544;2023-02-28T15:05:33;7.10;60.60
1468;DHT22;727;48.892;9.544;2023-02-28T15:08:06;6.90;61.00
1468;DHT22;727;48.892;9.544;2023-02-28T15:10:33;6.90;61.30
1468;DHT22;727;48.892;9.544;2023-02-28T15:13:05;6.90;61.60
1468;DHT22;727;48.892;9.544;2023-02-28T15:15:41;7.00;61.40
1468;DHT22;727;48.892;9.544;2023-02-28T15:18:15;7.10;61.50
1468;DHT22;727;48.892;9.544;2023-02-28T15:20:44;7.10;61.40
1468;DHT22;727;48.892;9.544;2023-02-28T15:23:12;7.00;61.30
1468;DHT22;727;48.892;9.544;2023-02-28T15:25:39;6.90;61.60
1468;DHT22;727;48.892;9.544;2023-02-28T15:28:14;6.80;62.10
1468;DHT22;727;48.892;9.544;2023-02-28T15:30:53;6.80;62.40
1468;DHT22;727;48.892;9.544;2023-02-28T15:33:23;6.70;62.20
1468;DHT22;727;48.892;9.544;2023-02-28T15:35:50;6.70;62.70
1468;DHT22;727;48.892;9.544;2023-02-28T15:38:22;6.50;62.60
1468;DHT22;727;48.892;9.544;2023-02-28T15:40:51;6.40;63.30
1468;DHT22;727;48.892;9.544;2023-02-28T15:43:29;6.30;63.30
1468;DHT22;727;48.892;9.544;2023-02-28T15:45:58;6.20;63.40
1468;DHT22;727;48.892;9.544;2023-02-28T15:48:27;6.10;63.60
1468;DHT22;727;48.892;9.544;2023-02-28T15:50:57;6.10;64.10
1468;DHT22;727;48.892;9.544;2023-02-28T15:53:31;6.00;64.80
1468;DHT22;727;48.892;9.544;2023-02-28T15:56:02;6.00;64.80
1468;DHT22;727;48.892;9.544;2023-02-28T15:58:31;5.90;64.70
1468;DHT22;727;48.892;9.544;2023-02-28T16:01:15;5.90;65.00
1468;DHT22;727;48.892;9.544;2023-02-28T16:03:45;5.90;65.70
1468;DHT22;727;48.892;9.544;2023-02-28T16:06:33;5.80;65.80
1468;DHT22;727;48.892;9.544;2023-02-28T16:09:00;5.80;65.60
1468;DHT22;727;48.892;9.544;2023-02-28T16:11:28;5.60;66.30
1468;DHT22;727;48.892;9.544;2023-02-28T16:13:57;5.50;66.40
1468;DHT22;727;48.892;9.544;2023-02-28T16:16:25;5.50;67.10
1468;DHT22;727;48.892;9.544;2023-02-28T16:18:52;5.40;67.60
1468;DHT22;727;48.892;9.544;2023-02-28T16:21:19;5.30;68.30
1468;DHT22;727;48.892;9.544;2023-02-28T16:23:46;5.20;68.80
1468;DHT22;727;48.892;9.544;2023-02-28T16:26:19;5.00;69.20
1468;DHT22;727;48.892;9.544;2023-02-28T16:28:47;4.90;70.20
1468;DHT22;727;48.892;9.544;2023-02-28T16:31:16;4.80;70.90
1468;DHT22;727;48.892;9.544;2023-02-28T16:33:44;4.70;71.20
1468;DHT22;727;48.892;9.544;2023-02-28T16:36:14;4.60;71.30
1468;DHT22;727;48.892;9.544;2023-02-28T16:38:41;4.40;72.50
1468;DHT22;727;48.892;9.544;2023-02-28T16:41:12;4.30;73.40
1468;DHT22;727;48.892;9.544;2023-02-28T16:43:42;4.00;74.60
1468;DHT22;727;48.892;9.544;2023-02-28T16:46:11;3.80;75.60
1468;DHT22;727;48.892;9.544;2023-02-28T16:48:40;3.70;76.40
1468;DHT22;727;48.892;9.544;2023-02-28T16:51:11;3.50;77.00
1468;DHT22;727;48.892;9.544;2023-02-28T16:53:38;3.30;78.10
1468;DHT22;727;48.892;9.544;2023-02-28T16:56:05;3.20;78.50
1468;DHT22;727;48.892;9.544;2023-02-28T16:58:33;3.10;79.00
1468;DHT22;727;48.892;9.544;2023-02-28T17:01:01;3.00;79.60
1468;DHT22;727;48.892;9.544;2023-02-28T17:03:28;2.80;80.30
1468;DHT22;727;48.892;9.544;2023-02-28T17:05:56;2.80;81.70
1468;DHT22;727;48.892;9.544;2023-02-28T17:08:23;2.60;81.60
1468;DHT22;727;48.892;9.544;2023-02-28T17:10:50;2.50;82.20
1468;DHT22;727;48.892;9.544;2023-02-28T17:13:17;2.40;82.90
1468;DHT22;727;48.892;9.544;2023-02-28T17:15:44;2.20;83.40